sensor_id;sensor_type;location;lat;lon;timestamp;P1;P2;P0
40569;PMS5003;26270;34.428;-119.710;2022-09-12T00:00:25;3;3;
40569;PMS5003;26270;34.428;-119.710;2022-09-12T00:02:54;2;1;
40569;PMS5003;26270;34.428;-119.710;2022-09-12T00:05:22;2;2;
40569;PMS5003;26270;34.428;-119.710;2022-09-12T00:07:51;2;2;
40569;PMS5003;26270;34.428;-119.710;2022-09-12T00:10:19;2;2;
40569;PMS5003;26270;34.428;-119.710;2022-09-12T00:12:47;3;2;
40569;PMS5003;26270;34.428;-119.710;2022-09-12T00:15:15;3;3;
40569;PMS5003;26270;34.428;-119.710;2022-09-12T00:17:43;2;2;
40569;PMS5003;26270;34.428;-119.710;2022-09-12T00:20:11;2;2;
40569;PMS5003;26270;34.428;-119.710;2022-09-12T00:22:39;2;2;
40569;PMS5003;26270;34.428;-119.710;2022-09-12T00:25:07;2;2;
40569;PMS5003;26270;34.428;-119.710;2022-09-12T00:27:36;2;2;
40569;PMS5003;26270;34.428;-119.710;2022-09-12T00:30:04;1;1;
40569;PMS5003;26270;34.428;-119.710;2022-09-12T00:32:33;3;2;
40569;PMS5003;26270;34.428;-119.710;2022-09-12T00:35:01;2;2;
40569;PMS5003;26270;34.428;-119.710;2022-09-12T00:37:29;3;2;
40569;PMS5003;26270;34.428;-119.710;2022-09-12T00:39:57;2;2;
40569;PMS5003;26270;34.428;-119.710;2022-09-12T00:42:25;1;1;
40569;PMS5003;26270;34.428;-119.710;2022-09-12T00:44:53;1;1;
40569;PMS5003;26270;34.428;-119.710;2022-09-12T00:47:23;2;2;
40569;PMS5003;26270;34.428;-119.710;2022-09-12T00:49:54;1;1;
40569;PMS5003;26270;34.428;-119.710;2022-09-12T00:52:31;2;1;
40569;PMS5003;26270;34.428;-119.710;2022-09-12T00:55:05;3;3;
40569;PMS5003;26270;34.428;-119.710;2022-09-12T00:57:38;1;1;
40569;PMS5003;26270;34.428;-119.710;2022-09-12T01:00:12;3;2;
40569;PMS5003;26270;34.428;-119.710;2022-09-12T01:02:43;3;3;
40569;PMS5003;26270;34.428;-119.710;2022-09-12T01:05:14;3;2;
40569;PMS5003;26270;34.428;-119.710;2022-09-12T01:07:43;2;2;
40569;PMS5003;26270;34.428;-119.710;2022-09-12T01:10:12;2;2;
40569;PMS5003;26270;34.428;-119.710;2022-09-12T01:12:41;2;2;
40569;PMS5003;26270;34.428;-119.710;2022-09-12T01:15:10;3;2;
40569;PMS5003;26270;34.428;-119.710;2022-09-12T01:17:40;2;2;
40569;PMS5003;26270;34.428;-119.710;2022-09-12T01:20:24;2;2;
40569;PMS5003;26270;34.428;-119.710;2022-09-12T01:25:09;2;2;
40569;PMS5003;26270;34.428;-119.710;2022-09-12T01:27:52;1;1;
40569;PMS5003;26270;34.428;-119.710;2022-09-12T01:30:41;2;2;
40569;PMS5003;26270;34.428;-119.710;2022-09-12T01:33:17;2;1;
40569;PMS5003;26270;34.428;-119.710;2022-09-12T01:35:58;2;2;
40569;PMS5003;26270;34.428;-119.710;2022-09-12T01:38:36;1;1;
40569;PMS5003;26270;34.428;-119.710;2022-09-12T01:41:10;2;2;
40569;PMS5003;26270;34.428;-119.710;2022-09-12T01:43:48;1;1;
40569;PMS5003;26270;34.428;-119.710;2022-09-12T01:46:23;1;1;
40569;PMS5003;26270;34.428;-119.710;2022-09-12T01:48:59;2;2;
40569;PMS5003;26270;34.428;-119.710;2022-09-12T01:51:32;1;1;
40569;PMS5003;26270;34.428;-119.710;2022-09-12T01:54:06;1;1;
40569;PMS5003;26270;34.428;-119.710;2022-09-12T01:56:39;1;0;
40569;PMS5003;26270;34.428;-119.710;2022-09-12T01:59:11;1;1;
40569;PMS5003;26270;34.428;-119.710;2022-09-12T02:01:44;1;1;
40569;PMS5003;26270;34.428;-119.710;2022-09-12T02:04:17;1;1;
40569;PMS5003;26270;34.428;-119.710;2022-09-12T02:06:50;1;1;
40569;PMS5003;26270;34.428;-119.710;2022-09-12T02:09:22;1;1;
40569;PMS5003;26270;34.428;-119.710;2022-09-12T02:11:56;1;1;
40569;PMS5003;26270;34.428;-119.710;2022-09-12T02:14:27;2;2;
40569;PMS5003;26270;34.428;-119.710;2022-09-12T02:16:59;3;3;
40569;PMS5003;26270;34.428;-119.710;2022-09-12T02:19:33;2;2;
40569;PMS5003;26270;34.428;-119.710;2022-09-12T02:22:06;2;2;
40569;PMS5003;26270;34.428;-119.710;2022-09-12T02:24:40;2;2;
40569;PMS5003;26270;34.428;-119.710;2022-09-12T02:27:14;4;3;
40569;PMS5003;26270;34.428;-119.710;2022-09-12T02:29:44;2;2;
40569;PMS5003;26270;34.428;-119.710;2022-09-12T02:32:15;3;2;
40569;PMS5003;26270;34.428;-119.710;2022-09-12T02:34:52;2;1;
40569;PMS5003;26270;34.428;-119.710;2022-09-12T02:37:28;1;1;
40569;PMS5003;26270;34.428;-119.710;2022-09-12T02:40:09;2;2;
40569;PMS5003;26270;34.428;-119.710;2022-09-12T02:42:37;1;1;
40569;PMS5003;26270;34.428;-119.710;2022-09-12T02:45:06;2;1;
40569;PMS5003;26270;34.428;-119.710;2022-09-12T02:47:37;2;1;
40569;PMS5003;26270;34.428;-119.710;2022-09-12T02:50:09;2;1;
40569;PMS5003;26270;34.428;-119.710;2022-09-12T02:52:38;2;2;
40569;PMS5003;26270;34.428;-119.710;2022-09-12T02:55:07;2;2;
40569;PMS5003;26270;34.428;-119.710;2022-09-12T02:57:37;1;1;
40569;PMS5003;26270;34.428;-119.710;2022-09-12T03:00:05;1;1;
40569;PMS5003;26270;34.428;-119.710;2022-09-12T03:02:39;1;0;
40569;PMS5003;26270;34.428;-119.710;2022-09-12T03:05:21;0;0;
40569;PMS5003;26270;34.428;-119.710;2022-09-12T03:07:58;1;1;
40569;PMS5003;26270;34.428;-119.710;2022-09-12T03:11:44;0;0;
40569;PMS5003;26270;34.428;-119.710;2022-09-12T03:14:32;2;2;
40569;PMS5003;26270;34.428;-119.710;2022-09-12T03:17:16;3;2;
40569;PMS5003;26270;34.428;-119.710;2022-09-12T03:19:55;1;1;
40569;PMS5003;26270;34.428;-119.710;2022-09-12T03:22:29;2;2;
40569;PMS5003;26270;34.428;-119.710;2022-09-12T03:25:04;1;1;
40569;PMS5003;26270;34.428;-119.710;2022-09-12T03:27:41;2;2;
40569;PMS5003;26270;34.428;-119.710;2022-09-12T03:30:15;4;2;
40569;PMS5003;26270;34.428;-119.710;2022-09-12T03:32:44;4;2;
40569;PMS5003;26270;34.428;-119.710;2022-09-12T03:35:15;5;3;
40569;PMS5003;26270;34.428;-119.710;2022-09-12T03:37:47;4;3;
40569;PMS5003;26270;34.428;-119.710;2022-09-12T03:40:17;6;3;
40569;PMS5003;26270;34.428;-119.710;2022-09-12T03:42:46;4;3;
40569;PMS5003;26270;34.428;-119.710;2022-09-12T03:45:14;4;3;
40569;PMS5003;26270;34.428;-119.710;2022-09-12T03:47:42;4;3;
40569;PMS5003;26270;34.428;-119.710;2022-09-12T03:50:10;3;2;
40569;PMS5003;26270;34.428;-119.710;2022-09-12T03:52:39;3;3;
40569;PMS5003;26270;34.428;-119.710;2022-09-12T03:55:13;2;1;
40569;PMS5003;26270;34.428;-119.710;2022-09-12T03:57:41;2;2;
40569;PMS5003;26270;34.428;-119.710;2022-09-12T04:03:18;3;2;
40569;PMS5003;26270;34.428;-119.710;2022-09-12T04:05:47;2;2;
40569;PMS5003;26270;34.428;-119.710;2022-09-12T04:08:15;6;3;
40569;PMS5003;26270;34.428;-119.710;2022-09-12T04:10:43;2;1;
40569;PMS5003;26270;34.428;-119.710;2022-09-12T04:13:11;4;2;
40569;PMS5003;26270;34.428;-119.710;2022-09-12T04:15:40;2;2;
40569;PMS5003;26270;34.428;-119.710;2022-09-12T04:18:08;3;2;
40569;PMS5003;26270;34.428;-119.710;2022-09-12T04:20:36;3;2;
40569;PMS5003;26270;34.428;-119.710;2022-09-12T04:23:04;3;3;
40569;PMS5003;26270;34.428;-119.710;2022-09-12T04:25:32;1;1;
40569;PMS5003;26270;34.428;-119.710;2022-09-12T04:28:00;2;2;
40569;PMS5003;26270;34.428;-119.710;2022-09-12T04:30:28;2;2;
40569;PMS5003;26270;34.428;-119.710;2022-09-12T04:32:57;1;1;
40569;PMS5003;26270;34.428;-119.710;2022-09-12T04:35:25;2;2;
40569;PMS5003;26270;34.428;-119.710;2022-09-12T04:37:53;3;2;
40569;PMS5003;26270;34.428;-119.710;2022-09-12T04:40:21;3;2;
40569;PMS5003;26270;34.428;-119.710;2022-09-12T04:42:49;3;3;
40569;PMS5003;26270;34.428;-119.710;2022-09-12T04:45:17;2;2;
40569;PMS5003;26270;34.428;-119.710;2022-09-12T04:47:45;2;2;
40569;PMS5003;26270;34.428;-119.710;2022-09-12T04:50:14;3;2;
40569;PMS5003;26270;34.428;-119.710;2022-09-12T04:52:43;3;2;
40569;PMS5003;26270;34.428;-119.710;2022-09-12T04:55:16;3;3;
40569;PMS5003;26270;34.428;-119.710;2022-09-12T04:57:44;2;2;
40569;PMS5003;26270;34.428;-119.710;2022-09-12T05:00:13;2;2;
40569;PMS5003;26270;34.428;-119.710;2022-09-12T05:02:42;2;2;
40569;PMS5003;26270;34.428;-119.710;2022-09-12T05:05:10;4;2;
40569;PMS5003;26270;34.428;-119.710;2022-09-12T05:07:39;6;3;
40569;PMS5003;26270;34.428;-119.710;2022-09-12T05:10:07;2;2;
40569;PMS5003;26270;34.428;-119.710;2022-09-12T05:12:36;2;2;
40569;PMS5003;26270;34.428;-119.710;2022-09-12T05:15:05;4;3;
40569;PMS5003;26270;34.428;-119.710;2022-09-12T05:17:33;1;1;
40569;PMS5003;26270;34.428;-119.710;2022-09-12T05:20:02;2;2;
40569;PMS5003;26270;34.428;-119.710;2022-09-12T05:22:31;1;1;
40569;PMS5003;26270;34.428;-119.710;2022-09-12T05:24:59;2;2;
40569;PMS5003;26270;34.428;-119.710;2022-09-12T05:27:27;2;2;
40569;PMS5003;26270;34.428;-119.710;2022-09-12T05:29:55;2;2;
40569;PMS5003;26270;34.428;-119.710;2022-09-12T05:32:23;4;2;
40569;PMS5003;26270;34.428;-119.710;2022-09-12T05:34:51;1;1;
40569;PMS5003;26270;34.428;-119.710;2022-09-12T05:37:19;4;3;
40569;PMS5003;26270;34.428;-119.710;2022-09-12T05:39:48;3;2;
40569;PMS5003;26270;34.428;-119.710;2022-09-12T05:42:16;3;2;
40569;PMS5003;26270;34.428;-119.710;2022-09-12T05:44:44;1;1;
40569;PMS5003;26270;34.428;-119.710;2022-09-12T05:47:12;2;2;
40569;PMS5003;26270;34.428;-119.710;2022-09-12T05:49:40;2;2;
40569;PMS5003;26270;34.428;-119.710;2022-09-12T05:52:08;2;2;
40569;PMS5003;26270;34.428;-119.710;2022-09-12T05:54:37;2;2;
40569;PMS5003;26270;34.428;-119.710;2022-09-12T05:57:05;2;1;
40569;PMS5003;26270;34.428;-119.710;2022-09-12T05:59:33;1;1;
40569;PMS5003;26270;34.428;-119.710;2022-09-12T06:02:01;3;2;
40569;PMS5003;26270;34.428;-119.710;2022-09-12T06:04:29;3;2;
40569;PMS5003;26270;34.428;-119.710;2022-09-12T06:06:57;4;3;
40569;PMS5003;26270;34.428;-119.710;2022-09-12T06:09:25;3;2;
40569;PMS5003;26270;34.428;-119.710;2022-09-12T06:11:54;2;2;
40569;PMS5003;26270;34.428;-119.710;2022-09-12T06:14:22;1;1;
40569;PMS5003;26270;34.428;-119.710;2022-09-12T06:16:50;2;2;
40569;PMS5003;26270;34.428;-119.710;2022-09-12T06:19:19;3;2;
40569;PMS5003;26270;34.428;-119.710;2022-09-12T06:21:48;3;3;
40569;PMS5003;26270;34.428;-119.710;2022-09-12T06:24:16;3;3;
40569;PMS5003;26270;34.428;-119.710;2022-09-12T06:26:47;2;2;
40569;PMS5003;26270;34.428;-119.710;2022-09-12T06:29:16;5;3;
40569;PMS5003;26270;34.428;-119.710;2022-09-12T06:31:44;2;2;
40569;PMS5003;26270;34.428;-119.710;2022-09-12T06:34:17;4;3;
40569;PMS5003;26270;34.428;-119.710;2022-09-12T06:36:46;3;3;
40569;PMS5003;26270;34.428;-119.710;2022-09-12T06:39:16;3;2;
40569;PMS5003;26270;34.428;-119.710;2022-09-12T06:41:45;3;3;
40569;PMS5003;26270;34.428;-119.710;2022-09-12T06:44:15;3;3;
40569;PMS5003;26270;34.428;-119.710;2022-09-12T06:46:45;2;2;
40569;PMS5003;26270;34.428;-119.710;2022-09-12T06:49:14;5;4;
40569;PMS5003;26270;34.428;-119.710;2022-09-12T06:51:42;4;4;
40569;PMS5003;26270;34.428;-119.710;2022-09-12T06:54:11;3;3;
40569;PMS5003;26270;34.428;-119.710;2022-09-12T06:56:41;2;2;
40569;PMS5003;26270;34.428;-119.710;2022-09-12T06:59:09;5;4;
40569;PMS5003;26270;34.428;-119.710;2022-09-12T07:01:37;7;3;
40569;PMS5003;26270;34.428;-119.710;2022-09-12T07:04:05;7;5;
40569;PMS5003;26270;34.428;-119.710;2022-09-12T07:06:35;5;4;
40569;PMS5003;26270;34.428;-119.710;2022-09-12T07:09:04;3;3;
40569;PMS5003;26270;34.428;-119.710;2022-09-12T07:11:36;4;3;
40569;PMS5003;26270;34.428;-119.710;2022-09-12T07:14:05;7;6;
40569;PMS5003;26270;34.428;-119.710;2022-09-12T07:16:35;4;3;
40569;PMS5003;26270;34.428;-119.710;2022-09-12T07:19:04;7;5;
40569;PMS5003;26270;34.428;-119.710;2022-09-12T07:21:33;4;3;
40569;PMS5003;26270;34.428;-119.710;2022-09-12T07:24:02;4;4;
40569;PMS5003;26270;34.428;-119.710;2022-09-12T07:26:30;4;4;
40569;PMS5003;26270;34.428;-119.710;2022-09-12T07:28:58;4;4;
40569;PMS5003;26270;34.428;-119.710;2022-09-12T07:31:28;5;5;
40569;PMS5003;26270;34.428;-119.710;2022-09-12T07:33:56;4;3;
40569;PMS5003;26270;34.428;-119.710;2022-09-12T07:36:24;10;5;
40569;PMS5003;26270;34.428;-119.710;2022-09-12T07:38:53;5;5;
40569;PMS5003;26270;34.428;-119.710;2022-09-12T07:41:22;6;5;
40569;PMS5003;26270;34.428;-119.710;2022-09-12T07:43:52;4;4;
40569;PMS5003;26270;34.428;-119.710;2022-09-12T07:46:22;3;3;
40569;PMS5003;26270;34.428;-119.710;2022-09-12T07:48:50;2;2;
40569;PMS5003;26270;34.428;-119.710;2022-09-12T07:51:19;4;4;
40569;PMS5003;26270;34.428;-119.710;2022-09-12T07:53:48;4;3;
40569;PMS5003;26270;34.428;-119.710;2022-09-12T07:56:16;3;2;
40569;PMS5003;26270;34.428;-119.710;2022-09-12T07:58:45;3;3;
40569;PMS5003;26270;34.428;-119.710;2022-09-12T08:01:15;4;4;
40569;PMS5003;26270;34.428;-119.710;2022-09-12T08:03:46;3;2;
40569;PMS5003;26270;34.428;-119.710;2022-09-12T08:06:16;4;4;
40569;PMS5003;26270;34.428;-119.710;2022-09-12T08:08:46;5;3;
40569;PMS5003;26270;34.428;-119.710;2022-09-12T08:11:15;4;2;
40569;PMS5003;26270;34.428;-119.710;2022-09-12T08:13:46;4;2;
40569;PMS5003;26270;34.428;-119.710;2022-09-12T08:16:15;5;3;
40569;PMS5003;26270;34.428;-119.710;2022-09-12T08:18:44;3;3;
40569;PMS5003;26270;34.428;-119.710;2022-09-12T08:21:13;3;3;
40569;PMS5003;26270;34.428;-119.710;2022-09-12T08:23:43;4;3;
40569;PMS5003;26270;34.428;-119.710;2022-09-12T08:26:12;5;3;
40569;PMS5003;26270;34.428;-119.710;2022-09-12T08:28:42;5;4;
40569;PMS5003;26270;34.428;-119.710;2022-09-12T08:31:12;5;3;
40569;PMS5003;26270;34.428;-119.710;2022-09-12T08:33:41;4;4;
40569;PMS5003;26270;34.428;-119.710;2022-09-12T08:36:10;4;4;
40569;PMS5003;26270;34.428;-119.710;2022-09-12T08:38:40;6;5;
40569;PMS5003;26270;34.428;-119.710;2022-09-12T08:41:11;3;3;
40569;PMS5003;26270;34.428;-119.710;2022-09-12T08:43:53;7;6;
40569;PMS5003;26270;34.428;-119.710;2022-09-12T08:46:33;3;3;
40569;PMS5003;26270;34.428;-119.710;2022-09-12T08:49:08;4;4;
40569;PMS5003;26270;34.428;-119.710;2022-09-12T08:51:39;5;5;
40569;PMS5003;26270;34.428;-119.710;2022-09-12T08:54:11;6;6;
40569;PMS5003;26270;34.428;-119.710;2022-09-12T08:56:45;4;4;
40569;PMS5003;26270;34.428;-119.710;2022-09-12T08:59:14;6;6;
40569;PMS5003;26270;34.428;-119.710;2022-09-12T09:01:43;4;4;
40569;PMS5003;26270;34.428;-119.710;2022-09-12T09:04:18;4;4;
40569;PMS5003;26270;34.428;-119.710;2022-09-12T09:07:00;9;7;
40569;PMS5003;26270;34.428;-119.710;2022-09-12T09:09:45;6;6;
40569;PMS5003;26270;34.428;-119.710;2022-09-12T09:12:26;5;5;
40569;PMS5003;26270;34.428;-119.710;2022-09-12T09:15:03;6;4;
40569;PMS5003;26270;34.428;-119.710;2022-09-12T09:17:40;5;5;
40569;PMS5003;26270;34.428;-119.710;2022-09-12T09:20:14;6;5;
40569;PMS5003;26270;34.428;-119.710;2022-09-12T09:22:48;6;5;
40569;PMS5003;26270;34.428;-119.710;2022-09-12T09:25:22;5;4;
40569;PMS5003;26270;34.428;-119.710;2022-09-12T09:27:57;6;4;
40569;PMS5003;26270;34.428;-119.710;2022-09-12T09:30:29;5;5;
40569;PMS5003;26270;34.428;-119.710;2022-09-12T09:32:59;4;4;
40569;PMS5003;26270;34.428;-119.710;2022-09-12T09:35:36;5;5;
40569;PMS5003;26270;34.428;-119.710;2022-09-12T09:38:13;6;6;
40569;PMS5003;26270;34.428;-119.710;2022-09-12T09:40:52;5;5;
40569;PMS5003;26270;34.428;-119.710;2022-09-12T09:43:29;7;7;
40569;PMS5003;26270;34.428;-119.710;2022-09-12T09:45:57;8;6;
40569;PMS5003;26270;34.428;-119.710;2022-09-12T09:48:26;6;6;
40569;PMS5003;26270;34.428;-119.710;2022-09-12T09:50:58;9;7;
40569;PMS5003;26270;34.428;-119.710;2022-09-12T09:53:32;10;6;
40569;PMS5003;26270;34.428;-119.710;2022-09-12T09:56:08;6;5;
40569;PMS5003;26270;34.428;-119.710;2022-09-12T09:58:40;8;7;
40569;PMS5003;26270;34.428;-119.710;2022-09-12T10:01:12;6;6;
40569;PMS5003;26270;34.428;-119.710;2022-09-12T10:03:46;8;6;
40569;PMS5003;26270;34.428;-119.710;2022-09-12T10:06:32;6;6;
40569;PMS5003;26270;34.428;-119.710;2022-09-12T10:09:06;6;6;
40569;PMS5003;26270;34.428;-119.710;2022-09-12T10:11:45;8;6;
40569;PMS5003;26270;34.428;-119.710;2022-09-12T10:14:31;8;7;
40569;PMS5003;26270;34.428;-119.710;2022-09-12T10:17:01;6;6;
40569;PMS5003;26270;34.428;-119.710;2022-09-12T10:19:48;7;7;
40569;PMS5003;26270;34.428;-119.710;2022-09-12T10:22:18;8;7;
40569;PMS5003;26270;34.428;-119.710;2022-09-12T10:24:49;9;8;
40569;PMS5003;26270;34.428;-119.710;2022-09-12T10:27:19;7;7;
40569;PMS5003;26270;34.428;-119.710;2022-09-12T10:29:51;12;9;
40569;PMS5003;26270;34.428;-119.710;2022-09-12T10:32:24;8;8;
40569;PMS5003;26270;34.428;-119.710;2022-09-12T10:34:56;9;9;
40569;PMS5003;26270;34.428;-119.710;2022-09-12T10:37:29;12;12;
40569;PMS5003;26270;34.428;-119.710;2022-09-12T10:40:00;11;9;
40569;PMS5003;26270;34.428;-119.710;2022-09-12T10:42:48;9;9;
40569;PMS5003;26270;34.428;-119.710;2022-09-12T10:45:19;10;9;
40569;PMS5003;26270;34.428;-119.710;2022-09-12T10:47:49;10;9;
40569;PMS5003;26270;34.428;-119.710;2022-09-12T10:50:20;13;10;
40569;PMS5003;26270;34.428;-119.710;2022-09-12T10:52:51;9;9;
40569;PMS5003;26270;34.428;-119.710;2022-09-12T10:55:23;12;11;
40569;PMS5003;26270;34.428;-119.710;2022-09-12T10:58:01;12;8;
40569;PMS5003;26270;34.428;-119.710;2022-09-12T11:00:46;11;11;
40569;PMS5003;26270;34.428;-119.710;2022-09-12T11:03:22;9;8;
40569;PMS5003;26270;34.428;-119.710;2022-09-12T11:06:01;9;9;
40569;PMS5003;26270;34.428;-119.710;2022-09-12T11:08:33;9;8;
40569;PMS5003;26270;34.428;-119.710;2022-09-12T11:11:13;10;8;
40569;PMS5003;26270;34.428;-119.710;2022-09-12T11:14:00;9;9;
40569;PMS5003;26270;34.428;-119.710;2022-09-12T11:16:42;12;10;
40569;PMS5003;26270;34.428;-119.710;2022-09-12T11:19:23;11;7;
40569;PMS5003;26270;34.428;-119.710;2022-09-12T11:22:13;9;8;
40569;PMS5003;26270;34.428;-119.710;2022-09-12T11:25:00;7;6;
40569;PMS5003;26270;34.428;-119.710;2022-09-12T11:27:47;8;8;
40569;PMS5003;26270;34.428;-119.710;2022-09-12T11:30:29;7;5;
40569;PMS5003;26270;34.428;-119.710;2022-09-12T11:33:08;10;8;
40569;PMS5003;26270;34.428;-119.710;2022-09-12T11:35:51;7;7;
40569;PMS5003;26270;34.428;-119.710;2022-09-12T11:38:24;8;8;
40569;PMS5003;26270;34.428;-119.710;2022-09-12T11:41:07;7;6;
40569;PMS5003;26270;34.428;-119.710;2022-09-12T11:43:41;8;6;
40569;PMS5003;26270;34.428;-119.710;2022-09-12T11:46:16;7;7;
40569;PMS5003;26270;34.428;-119.710;2022-09-12T11:48:50;7;7;
40569;PMS5003;26270;34.428;-119.710;2022-09-12T11:51:24;7;6;
40569;PMS5003;26270;34.428;-119.710;2022-09-12T11:53:58;8;6;
40569;PMS5003;26270;34.428;-119.710;2022-09-12T11:56:31;6;6;
40569;PMS5003;26270;34.428;-119.710;2022-09-12T11:59:08;7;7;
40569;PMS5003;26270;34.428;-119.710;2022-09-12T12:01:42;8;7;
40569;PMS5003;26270;34.428;-119.710;2022-09-12T12:04:12;7;6;
40569;PMS5003;26270;34.428;-119.710;2022-09-12T12:06:48;6;6;
40569;PMS5003;26270;34.428;-119.710;2022-09-12T12:09:21;7;7;
40569;PMS5003;26270;34.428;-119.710;2022-09-12T12:11:52;10;8;
40569;PMS5003;26270;34.428;-119.710;2022-09-12T12:14:24;9;7;
40569;PMS5003;26270;34.428;-119.710;2022-09-12T12:16:57;8;6;
40569;PMS5003;26270;34.428;-119.710;2022-09-12T12:19:30;7;6;
40569;PMS5003;26270;34.428;-119.710;2022-09-12T12:22:05;7;6;
40569;PMS5003;26270;34.428;-119.710;2022-09-12T12:24:53;7;6;
40569;PMS5003;26270;34.428;-119.710;2022-09-12T12:27:44;8;8;
40569;PMS5003;26270;34.428;-119.710;2022-09-12T12:30:57;7;6;
40569;PMS5003;26270;34.428;-119.710;2022-09-12T12:34:01;6;6;
40569;PMS5003;26270;34.428;-119.710;2022-09-12T12:36:50;8;7;
40569;PMS5003;26270;34.428;-119.710;2022-09-12T12:40:01;6;6;
40569;PMS5003;26270;34.428;-119.710;2022-09-12T12:42:56;5;5;
40569;PMS5003;26270;34.428;-119.710;2022-09-12T12:46:03;8;7;
40569;PMS5003;26270;34.428;-119.710;2022-09-12T12:48:35;7;6;
40569;PMS5003;26270;34.428;-119.710;2022-09-12T12:51:19;8;8;
40569;PMS5003;26270;34.428;-119.710;2022-09-12T12:53:55;7;6;
40569;PMS5003;26270;34.428;-119.710;2022-09-12T12:56:25;7;7;
40569;PMS5003;26270;34.428;-119.710;2022-09-12T12:59:00;10;9;
40569;PMS5003;26270;34.428;-119.710;2022-09-12T13:01:37;9;7;
40569;PMS5003;26270;34.428;-119.710;2022-09-12T13:04:14;6;5;
40569;PMS5003;26270;34.428;-119.710;2022-09-12T13:06:45;11;8;
40569;PMS5003;26270;34.428;-119.710;2022-09-12T13:09:23;8;6;
40569;PMS5003;26270;34.428;-119.710;2022-09-12T13:11:57;8;8;
40569;PMS5003;26270;34.428;-119.710;2022-09-12T13:14:33;7;7;
40569;PMS5003;26270;34.428;-119.710;2022-09-12T13:17:14;9;8;
40569;PMS5003;26270;34.428;-119.710;2022-09-12T13:19:48;8;8;
40569;PMS5003;26270;34.428;-119.710;2022-09-12T13:22:20;7;6;
40569;PMS5003;26270;34.428;-119.710;2022-09-12T13:24:49;10;9;
40569;PMS5003;26270;34.428;-119.710;2022-09-12T13:27:19;7;7;
40569;PMS5003;26270;34.428;-119.710;2022-09-12T13:29:49;9;9;
40569;PMS5003;26270;34.428;-119.710;2022-09-12T13:32:31;8;8;
40569;PMS5003;26270;34.428;-119.710;2022-09-12T13:35:02;8;8;
40569;PMS5003;26270;34.428;-119.710;2022-09-12T13:37:40;9;8;
40569;PMS5003;26270;34.428;-119.710;2022-09-12T13:40:21;8;6;
40569;PMS5003;26270;34.428;-119.710;2022-09-12T13:43:07;9;9;
40569;PMS5003;26270;34.428;-119.710;2022-09-12T13:45:40;8;8;
40569;PMS5003;26270;34.428;-119.710;2022-09-12T13:48:13;10;9;
40569;PMS5003;26270;34.428;-119.710;2022-09-12T13:50:47;9;9;
40569;PMS5003;26270;34.428;-119.710;2022-09-12T13:53:19;9;9;
40569;PMS5003;26270;34.428;-119.710;2022-09-12T13:55:51;10;9;
40569;PMS5003;26270;34.428;-119.710;2022-09-12T13:58:23;10;9;
40569;PMS5003;26270;34.428;-119.710;2022-09-12T14:01:00;9;9;
40569;PMS5003;26270;34.428;-119.710;2022-09-12T14:03:32;9;9;
40569;PMS5003;26270;34.428;-119.710;2022-09-12T14:06:05;11;9;
40569;PMS5003;26270;34.428;-119.710;2022-09-12T14:08:33;11;8;
40569;PMS5003;26270;34.428;-119.710;2022-09-12T14:11:07;12;11;
40569;PMS5003;26270;34.428;-119.710;2022-09-12T14:13:36;15;12;
40569;PMS5003;26270;34.428;-119.710;2022-09-12T14:16:05;12;12;
40569;PMS5003;26270;34.428;-119.710;2022-09-12T14:18:37;13;13;
40569;PMS5003;26270;34.428;-119.710;2022-09-12T14:21:07;12;12;
40569;PMS5003;26270;34.428;-119.710;2022-09-12T14:23:37;12;11;
40569;PMS5003;26270;34.428;-119.710;2022-09-12T14:26:08;11;10;
40569;PMS5003;26270;34.428;-119.710;2022-09-12T14:28:40;15;13;
40569;PMS5003;26270;34.428;-119.710;2022-09-12T14:31:19;14;12;
40569;PMS5003;26270;34.428;-119.710;2022-09-12T14:33:51;13;12;
40569;PMS5003;26270;34.428;-119.710;2022-09-12T14:36:22;13;10;
40569;PMS5003;26270;34.428;-119.710;2022-09-12T14:38:53;36;28;
40569;PMS5003;26270;34.428;-119.710;2022-09-12T14:41:26;13;11;
40569;PMS5003;26270;34.428;-119.710;2022-09-12T14:43:57;9;9;
40569;PMS5003;26270;34.428;-119.710;2022-09-12T14:46:30;24;22;
40569;PMS5003;26270;34.428;-119.710;2022-09-12T14:49:06;29;27;
40569;PMS5003;26270;34.428;-119.710;2022-09-12T14:51:42;9;9;
40569;PMS5003;26270;34.428;-119.710;2022-09-12T14:54:37;11;9;
40569;PMS5003;26270;34.428;-119.710;2022-09-12T14:57:15;15;13;
40569;PMS5003;26270;34.428;-119.710;2022-09-12T15:00:04;42;41;
40569;PMS5003;26270;34.428;-119.710;2022-09-12T15:02:42;19;16;
40569;PMS5003;26270;34.428;-119.710;2022-09-12T15:05:15;17;14;
40569;PMS5003;26270;34.428;-119.710;2022-09-12T15:07:50;16;16;
40569;PMS5003;26270;34.428;-119.710;2022-09-12T15:10:24;19;16;
40569;PMS5003;26270;34.428;-119.710;2022-09-12T15:13:27;22;18;
40569;PMS5003;26270;34.428;-119.710;2022-09-12T15:16:07;19;18;
40569;PMS5003;26270;34.428;-119.710;2022-09-12T15:18:37;15;15;
40569;PMS5003;26270;34.428;-119.710;2022-09-12T15:21:06;12;11;
40569;PMS5003;26270;34.428;-119.710;2022-09-12T15:23:39;16;16;
40569;PMS5003;26270;34.428;-119.710;2022-09-12T15:26:11;15;14;
40569;PMS5003;26270;34.428;-119.710;2022-09-12T15:28:40;11;11;
40569;PMS5003;26270;34.428;-119.710;2022-09-12T15:31:11;12;10;
40569;PMS5003;26270;34.428;-119.710;2022-09-12T15:33:45;9;9;
40569;PMS5003;26270;34.428;-119.710;2022-09-12T15:36:14;11;9;
40569;PMS5003;26270;34.428;-119.710;2022-09-12T15:38:44;8;8;
40569;PMS5003;26270;34.428;-119.710;2022-09-12T15:41:14;8;8;
40569;PMS5003;26270;34.428;-119.710;2022-09-12T15:43:44;10;10;
40569;PMS5003;26270;34.428;-119.710;2022-09-12T15:46:14;10;9;
40569;PMS5003;26270;34.428;-119.710;2022-09-12T15:48:42;8;7;
40569;PMS5003;26270;34.428;-119.710;2022-09-12T15:51:11;8;8;
40569;PMS5003;26270;34.428;-119.710;2022-09-12T15:53:40;9;9;
40569;PMS5003;26270;34.428;-119.710;2022-09-12T15:56:09;10;9;
40569;PMS5003;26270;34.428;-119.710;2022-09-12T15:58:37;10;8;
40569;PMS5003;26270;34.428;-119.710;2022-09-12T16:01:08;10;9;
40569;PMS5003;26270;34.428;-119.710;2022-09-12T16:03:37;13;10;
40569;PMS5003;26270;34.428;-119.710;2022-09-12T16:06:06;9;9;
40569;PMS5003;26270;34.428;-119.710;2022-09-12T16:08:35;9;8;
40569;PMS5003;26270;34.428;-119.710;2022-09-12T16:11:03;10;8;
40569;PMS5003;26270;34.428;-119.710;2022-09-12T16:13:33;11;10;
40569;PMS5003;26270;34.428;-119.710;2022-09-12T16:16:02;9;9;
40569;PMS5003;26270;34.428;-119.710;2022-09-12T16:18:30;8;8;
40569;PMS5003;26270;34.428;-119.710;2022-09-12T16:20:58;9;9;
40569;PMS5003;26270;34.428;-119.710;2022-09-12T16:23:26;8;7;
40569;PMS5003;26270;34.428;-119.710;2022-09-12T16:25:56;11;9;
40569;PMS5003;26270;34.428;-119.710;2022-09-12T16:28:24;11;11;
40569;PMS5003;26270;34.428;-119.710;2022-09-12T16:30:54;14;11;
40569;PMS5003;26270;34.428;-119.710;2022-09-12T16:33:22;13;10;
40569;PMS5003;26270;34.428;-119.710;2022-09-12T16:35:52;10;9;
40569;PMS5003;26270;34.428;-119.710;2022-09-12T16:38:27;11;11;